createdAt,value
2018-09-23T00:00:16.354Z,22.9
2018-09-23T00:01:05.589Z,22.9
2018-09-23T00:01:56.782Z,22.9
2018-09-23T00:02:46.531Z,22.9
2018-09-23T00:03:36.615Z,22.8
2018-09-23T00:04:26.626Z,22.9
2018-09-23T00:05:16.764Z,22.9
2018-09-23T00:06:06.806Z,22.8
2018-09-23T00:06:56.604Z,22.9
2018-09-23T00:07:46.959Z,22.9
2018-09-23T00:08:37.287Z,22.9
2018-09-23T00:09:26.227Z,22.8
2018-09-23T00:10:16.833Z,22.9
2018-09-23T00:11:06.638Z,22.8
2018-09-23T00:11:57.528Z,22.9
2018-09-23T00:12:47.586Z,22.8
2018-09-23T00:13:37.070Z,22.9
2018-09-23T00:14:27.703Z,22.8
2018-09-23T00:15:18.130Z,22.9
2018-09-23T00:16:07.528Z,22.8
2018-09-23T00:16:57.051Z,22.9
2018-09-23T00:17:47.668Z,22.9
2018-09-23T00:18:38.310Z,22.9
2018-09-23T00:19:27.563Z,22.9
2018-09-23T00:20:17.587Z,22.9
2018-09-23T00:21:07.416Z,22.8
2018-09-23T00:21:58.019Z,22.9
2018-09-23T00:22:48.080Z,22.9
2018-09-23T00:23:38.468Z,22.9
2018-09-23T00:24:27.805Z,22.9
2018-09-23T00:25:18.512Z,22.9
2018-09-23T00:26:07.975Z,22.9
2018-09-23T00:26:58.660Z,22.9
2018-09-23T00:27:48.753Z,22.9
2018-09-23T00:28:38.778Z,22.9
2018-09-23T00:29:28.017Z,22.9
2018-09-23T00:30:17.797Z,22.9
2018-09-23T00:31:08.192Z,22.9
2018-09-23T00:31:58.747Z,22.9
2018-09-23T00:32:48.603Z,22.9
2018-09-23T00:33:38.369Z,22.9
2018-09-23T00:34:27.822Z,22.9
2018-09-23T00:35:19.656Z,22.9
2018-09-23T00:36:09.721Z,22.9
2018-09-23T00:36:58.603Z,22.9
2018-09-23T00:56:03.643Z,22.6
2018-09-23T00:56:53.779Z,22.6
2018-09-23T00:57:44.100Z,22.6
2018-09-23T00:58:34.894Z,22.6
2018-09-23T00:59:24.669Z,22.6
2018-09-23T01:00:14.635Z,22.6
2018-09-23T01:01:04.638Z,22.6
2018-09-23T01:01:54.483Z,22.7
2018-09-23T01:02:45.105Z,22.7
2018-09-23T01:03:34.275Z,22.7
2018-09-23T01:04:25.167Z,22.8
2018-09-23T01:05:14.955Z,22.8
2018-09-23T01:06:05.584Z,22.8
2018-09-23T01:06:54.769Z,22.8
2018-09-23T01:07:45.212Z,22.8
2018-09-23T01:08:35.233Z,22.8
2018-09-23T01:09:24.990Z,22.8
2018-09-23T01:10:15.509Z,22.8
2018-09-23T01:11:06.804Z,22.8
2018-09-23T01:11:54.894Z,22.8
2018-09-23T01:12:45.814Z,22.9
2018-09-23T01:13:35.636Z,22.9
2018-09-23T01:14:25.352Z,22.9
2018-09-23T01:15:15.468Z,22.8
2018-09-23T01:16:04.961Z,22.8
2018-09-23T01:16:56.436Z,22.8
2018-09-23T01:17:45.891Z,22.8
2018-09-23T01:18:35.391Z,22.8
2018-09-23T01:19:25.444Z,22.8
2018-09-23T01:20:15.793Z,22.8
2018-09-23T01:21:06.381Z,22.9
2018-09-23T01:21:56.770Z,22.9
2018-09-23T01:22:46.296Z,22.9
2018-09-23T01:23:36.356Z,22.9
2018-09-23T01:24:26.168Z,22.9
2018-09-23T01:25:16.010Z,22.9
2018-09-23T01:26:06.949Z,22.9
2018-09-23T01:26:56.999Z,22.9
2018-09-23T01:27:46.648Z,22.9
2018-09-23T01:28:35.913Z,22.9
2018-09-23T01:29:26.468Z,22.9
2018-09-23T01:30:16.845Z,22.9
2018-09-23T01:31:06.991Z,22.9
2018-09-23T01:31:57.004Z,22.9
2018-09-23T01:32:47.347Z,22.9
2018-09-23T01:33:37.398Z,22.9
2018-09-23T01:34:27.166Z,22.9
2018-09-23T01:35:17.045Z,22.9
2018-09-23T01:36:06.735Z,22.9
2018-09-23T01:36:56.628Z,22.9
2018-09-23T01:37:47.163Z,22.9
2018-09-23T01:38:36.357Z,22.9
2018-09-23T01:39:27.269Z,22.9
2018-09-23T01:40:17.085Z,22.9
2018-09-23T01:41:07.699Z,22.9
2018-09-23T01:41:57.601Z,22.9
2018-09-23T01:42:47.868Z,22.8
2018-09-23T01:43:37.882Z,22.8
2018-09-23T01:44:27.907Z,22.8
2018-09-23T01:45:18.260Z,22.9
2018-09-23T01:46:07.765Z,22.9
2018-09-23T01:46:58.650Z,22.9
2018-09-23T01:47:48.169Z,22.9
2018-09-23T01:48:38.241Z,22.8
2018-09-23T01:49:28.064Z,22.8
2018-09-23T01:50:18.354Z,22.8
2018-09-23T01:51:07.279Z,22.8
2018-09-23T01:51:59.012Z,22.8
2018-09-23T01:52:48.007Z,22.8
2018-09-23T01:53:39.144Z,22.8
2018-09-23T01:54:28.104Z,22.8
2018-09-23T01:55:18.464Z,22.8
2018-09-23T01:56:08.249Z,22.9
2018-09-23T01:56:58.278Z,22.8
2018-09-23T01:57:49.254Z,22.8
2018-09-23T01:58:39.126Z,22.8
2018-09-23T01:59:28.208Z,22.8
2018-09-23T02:00:18.616Z,22.8
2018-09-23T02:01:09.176Z,22.8
2018-09-23T02:01:58.956Z,22.8
2018-09-23T02:02:49.274Z,22.8
2018-09-23T02:03:39.373Z,22.8
2018-09-23T02:04:28.628Z,22.8
2018-09-23T02:05:19.490Z,22.8
2018-09-23T02:06:08.444Z,22.8
2018-09-23T02:06:59.068Z,22.8
2018-09-23T02:07:50.632Z,22.8
2018-09-23T02:08:40.698Z,22.8
2018-09-23T02:09:28.678Z,22.8
2018-09-23T02:10:19.573Z,22.8
2018-09-23T02:11:10.215Z,22.8
2018-09-23T02:12:00.022Z,22.8
2018-09-23T02:12:50.448Z,22.8
2018-09-23T02:13:39.028Z,22.8
2018-09-23T02:14:29.956Z,22.8
2018-09-23T02:15:20.296Z,22.8
2018-09-23T02:16:10.063Z,22.8
2018-09-23T02:17:00.355Z,22.8
2018-09-23T02:17:50.989Z,22.8
2018-09-23T02:18:39.686Z,22.8
2018-09-23T02:19:30.322Z,22.8
2018-09-23T02:20:20.670Z,22.8
2018-09-23T02:21:10.760Z,22.8
2018-09-23T02:22:00.184Z,22.8
2018-09-23T02:22:50.503Z,22.8
2018-09-23T02:23:40.828Z,22.8
2018-09-23T02:24:30.668Z,22.8
2018-09-23T02:25:20.737Z,22.8
2018-09-23T02:26:11.142Z,22.8
2018-09-23T02:27:00.850Z,22.8
2018-09-23T02:27:50.652Z,22.8
2018-09-23T02:28:41.188Z,22.8
2018-09-23T02:29:30.764Z,22.8
2018-09-23T02:30:21.467Z,22.8
2018-09-23T02:31:11.753Z,22.8
2018-09-23T02:32:01.567Z,22.8
2018-09-23T02:32:50.988Z,22.8
2018-09-23T02:33:41.052Z,22.7
2018-09-23T02:34:31.456Z,22.7
2018-09-23T02:35:21.469Z,22.7
2018-09-23T02:36:11.914Z,22.7
2018-09-23T02:37:01.654Z,22.7
2018-09-23T02:37:51.898Z,22.7
2018-09-23T02:38:41.703Z,22.7
2018-09-23T02:39:31.811Z,22.7
2018-09-23T02:40:21.861Z,22.7
2018-09-23T02:41:11.991Z,22.7
2018-09-23T02:42:02.621Z,22.7
2018-09-23T02:42:52.028Z,22.7
2018-09-23T02:43:41.881Z,22.7
2018-09-23T02:44:32.448Z,22.7
2018-09-23T02:45:21.515Z,22.7
2018-09-23T02:46:11.756Z,22.7
2018-09-23T02:47:02.096Z,22.7
2018-09-23T02:47:52.161Z,22.6
2018-09-23T02:48:42.740Z,22.6
2018-09-23T02:49:32.868Z,22.6
2018-09-23T02:50:23.180Z,22.6
2018-09-23T02:51:12.688Z,22.6
2018-09-23T02:52:03.062Z,22.6
2018-09-23T02:52:52.290Z,22.6
2018-09-23T02:53:43.102Z,22.6
2018-09-23T02:54:33.253Z,22.6
2018-09-23T02:55:23.042Z,22.6
2018-09-23T02:56:13.047Z,22.6
2018-09-23T02:57:02.843Z,22.6
2018-09-23T02:57:52.900Z,22.6
2018-09-23T02:58:43.530Z,22.6
2018-09-23T02:59:33.057Z,22.6
2018-09-23T03:00:24.000Z,22.6
2018-09-23T03:01:13.502Z,22.6
2018-09-23T03:02:03.777Z,22.6
2018-09-23T03:02:53.852Z,22.6
2018-09-23T03:03:44.534Z,22.6
2018-09-23T03:04:33.430Z,22.6
2018-09-23T03:05:23.847Z,22.6
2018-09-23T03:06:13.534Z,22.6
2018-09-23T03:07:04.187Z,22.6
2018-09-23T03:07:54.249Z,22.6
2018-09-23T03:08:44.239Z,22.6
2018-09-23T03:09:34.394Z,22.5
2018-09-23T03:10:24.100Z,22.6
2018-09-23T03:11:13.665Z,22.6
2018-09-23T03:12:04.261Z,22.6
2018-09-23T03:12:54.639Z,22.5
2018-09-23T03:13:44.392Z,22.6
2018-09-23T03:14:34.684Z,22.5
2018-09-23T03:15:24.845Z,22.5
2018-09-23T03:16:14.611Z,22.5
2018-09-23T03:17:05.264Z,22.6
2018-09-23T03:17:54.940Z,22.6
2018-09-23T03:18:44.779Z,22.5
2018-09-23T03:19:35.364Z,22.5
2018-09-23T03:20:24.639Z,22.5
2018-09-23T03:21:14.727Z,22.5
2018-09-23T03:22:05.452Z,22.5
2018-09-23T03:22:54.261Z,22.5
2018-09-23T03:23:45.186Z,22.6
2018-09-23T03:24:36.064Z,22.5
2018-09-23T03:25:26.365Z,22.5
2018-09-23T03:26:15.676Z,22.5
2018-09-23T03:27:05.131Z,22.5
2018-09-23T03:27:55.809Z,22.5
2018-09-23T03:28:45.607Z,22.4
2018-09-23T03:29:36.193Z,22.5
2018-09-23T03:30:27.425Z,22.5
2018-09-23T03:31:15.668Z,22.4
2018-09-23T03:32:05.934Z,22.4
2018-09-23T03:32:56.187Z,22.4
2018-09-23T03:33:46.201Z,22.4
2018-09-23T03:34:36.303Z,22.4
2018-09-23T03:35:26.630Z,22.4
2018-09-23T03:36:16.356Z,22.4
2018-09-23T03:37:05.633Z,22.4
2018-09-23T03:37:56.213Z,22.4
2018-09-23T03:38:46.278Z,22.4
2018-09-23T03:39:36.650Z,22.4
2018-09-23T03:40:27.200Z,22.4
2018-09-23T03:41:16.535Z,22.4
2018-09-23T03:42:06.820Z,22.4
2018-09-23T03:42:57.170Z,22.4
2018-09-23T03:43:46.955Z,22.4
2018-09-23T03:44:36.541Z,22.4
2018-09-23T03:45:27.287Z,22.4
2018-09-23T03:46:16.342Z,22.4
2018-09-23T03:47:05.796Z,22.4
2018-09-23T03:47:57.300Z,22.4
2018-09-23T03:48:46.782Z,22.4
2018-09-23T03:49:37.667Z,22.4
2018-09-23T03:50:26.846Z,22.4
2018-09-23T03:51:17.730Z,22.4
2018-09-23T03:52:07.555Z,22.3
2018-09-23T03:52:57.625Z,22.4
2018-09-23T03:53:47.103Z,22.3
2018-09-23T03:54:38.040Z,22.3
2018-09-23T03:55:28.407Z,22.4
2018-09-23T03:56:18.187Z,22.3
2018-09-23T03:57:08.222Z,22.3
2018-09-23T03:57:58.216Z,22.3
2018-09-23T03:58:48.429Z,22.3
2018-09-23T03:59:37.849Z,22.3
2018-09-23T04:00:28.442Z,22.3
2018-09-23T04:01:19.415Z,22.3
2018-09-23T04:02:07.514Z,22.3
2018-09-23T04:02:58.425Z,22.3
2018-09-23T04:03:46.999Z,22.3
2018-09-23T04:04:37.976Z,22.3
2018-09-23T04:05:29.179Z,22.3
2018-09-23T04:06:17.166Z,22.3
2018-09-23T04:07:08.151Z,22.3
2018-09-23T04:07:58.788Z,22.3
2018-09-23T04:08:48.892Z,22.3
2018-09-23T04:09:38.071Z,22.3
2018-09-23T04:10:28.373Z,22.3
2018-09-23T04:11:18.693Z,22.3
2018-09-23T04:12:10.003Z,22.3
2018-09-23T04:12:58.867Z,22.3
2018-09-23T04:13:48.912Z,22.3
2018-09-23T04:14:38.940Z,22.3
2018-09-23T04:15:28.471Z,22.3
2018-09-23T04:16:18.608Z,22.3
2018-09-23T04:17:09.456Z,22.3
2018-09-23T04:17:58.949Z,22.3
2018-09-23T04:18:49.928Z,22.3
2018-09-23T04:19:39.389Z,22.3
2018-09-23T04:20:29.726Z,22.3
2018-09-23T04:21:19.145Z,22.3
2018-09-23T04:22:10.438Z,22.3
2018-09-23T04:23:00.179Z,22.3
2018-09-23T04:23:49.370Z,22.3
2018-09-23T04:24:39.728Z,22.3
2018-09-23T04:25:30.095Z,22.3
2018-09-23T04:26:19.865Z,22.3
2018-09-23T04:27:10.543Z,22.3
2018-09-23T04:28:00.555Z,22.3
2018-09-23T04:28:50.049Z,22.3
2018-09-23T04:29:40.398Z,22.3
2018-09-23T04:30:29.705Z,22.3
2018-09-23T04:31:20.293Z,22.3
2018-09-23T04:32:11.178Z,22.3
2018-09-23T04:32:59.830Z,22.3
2018-09-23T04:33:50.722Z,22.3
2018-09-23T04:34:39.900Z,22.3
2018-09-23T04:35:30.593Z,22.3
2018-09-23T04:36:20.595Z,22.3
2018-09-23T04:37:10.922Z,22.3
2018-09-23T04:38:00.417Z,22.3
2018-09-23T04:38:50.822Z,22.3
2018-09-23T04:39:40.282Z,22.3
2018-09-23T04:40:30.664Z,22.3
2018-09-23T04:41:20.969Z,22.3
2018-09-23T04:42:11.625Z,22.3
2018-09-23T04:43:01.114Z,22.3
2018-09-23T04:43:50.895Z,22.3
2018-09-23T04:44:40.934Z,22.3
2018-09-23T04:45:31.335Z,22.3
2018-09-23T04:46:21.676Z,22.3
2018-09-23T04:47:11.735Z,22.3
2018-09-23T04:48:02.132Z,22.3
2018-09-23T04:48:51.904Z,22.3
2018-09-23T04:49:41.321Z,22.3
2018-09-23T04:50:31.983Z,22.2
2018-09-23T04:51:21.441Z,22.2
2018-09-23T04:52:12.091Z,22.2
2018-09-23T04:53:03.602Z,22.2
2018-09-23T04:53:52.237Z,22.2
2018-09-23T04:54:41.759Z,22.2
2018-09-23T04:55:32.658Z,22.2
2018-09-23T04:56:21.962Z,22.2
2018-09-23T04:57:12.177Z,22.2
2018-09-23T04:58:02.198Z,22.2
2018-09-23T04:58:52.557Z,22.2
2018-09-23T04:59:42.097Z,22.1
2018-09-23T05:00:32.697Z,22.2
2018-09-23T05:01:22.503Z,22.1
2018-09-23T05:02:12.887Z,22.1
2018-09-23T05:03:02.642Z,22.1
2018-09-23T05:03:52.719Z,22.1
2018-09-23T05:04:42.761Z,22.2
2018-09-23T05:05:32.522Z,22.2
2018-09-23T05:06:23.121Z,22.1
2018-09-23T05:07:13.244Z,22.2
2018-09-23T05:25:00.179Z,21.9
2018-09-23T05:25:49.430Z,21.9
2018-09-23T05:26:39.181Z,21.9
2018-09-23T05:27:28.487Z,21.9
2018-09-23T05:28:19.853Z,21.9
2018-09-23T05:29:09.053Z,21.9
2018-09-23T05:30:00.778Z,21.9
2018-09-23T05:30:50.151Z,22
2018-09-23T05:31:40.146Z,22.1
2018-09-23T05:32:30.147Z,22.1
2018-09-23T05:33:19.960Z,22.1
2018-09-23T05:34:10.295Z,22.1
2018-09-23T05:35:00.647Z,22.1
2018-09-23T05:35:49.853Z,22.1
2018-09-23T05:36:40.760Z,22.2
2018-09-23T05:37:30.262Z,22.2
2018-09-23T05:38:20.612Z,22.2
2018-09-23T05:39:10.673Z,22.3
2018-09-23T05:40:01.245Z,22.3
2018-09-23T05:40:51.022Z,22.2
2018-09-23T05:41:40.595Z,22.3
2018-09-23T05:42:30.903Z,22.3
2018-09-23T05:43:20.442Z,22.3
2018-09-23T05:44:12.437Z,22.3
2018-09-23T05:45:00.029Z,22.3
2018-09-23T05:45:51.250Z,22.3
2018-09-23T05:46:40.632Z,22.3
2018-09-23T05:47:30.142Z,22.3
2018-09-23T05:48:20.768Z,22.3
2018-09-23T05:49:10.871Z,22.3
2018-09-23T05:50:01.764Z,22.4
2018-09-23T05:50:51.259Z,22.4
2018-09-23T05:51:42.417Z,22.4
2018-09-23T05:52:31.691Z,22.4
2018-09-23T05:53:22.586Z,22.4
2018-09-23T05:54:11.356Z,22.4
2018-09-23T05:55:01.222Z,22.4
2018-09-23T05:55:51.724Z,22.4
2018-09-23T05:56:40.931Z,22.4
2018-09-23T05:57:31.246Z,22.4
2018-09-23T05:58:21.831Z,22.4
2018-09-23T05:59:11.613Z,22.4
2018-09-23T06:00:02.301Z,22.4
2018-09-23T06:00:51.782Z,22.4
2018-09-23T06:01:42.416Z,22.4
2018-09-23T06:02:32.721Z,22.4
2018-09-23T06:03:23.509Z,22.4
2018-09-23T06:04:12.554Z,22.4
2018-09-23T06:05:02.604Z,22.4
2018-09-23T06:05:52.538Z,22.4
2018-09-23T06:06:41.800Z,22.4
2018-09-23T06:07:32.858Z,22.4
2018-09-23T06:08:22.262Z,22.5
2018-09-23T06:09:12.103Z,22.4
2018-09-23T06:10:02.968Z,22.5
2018-09-23T06:10:53.326Z,22.4
2018-09-23T06:11:42.696Z,22.4
2018-09-23T06:12:32.307Z,22.5
2018-09-23T06:13:23.510Z,22.5
2018-09-23T06:14:13.377Z,22.4
2018-09-23T06:15:02.800Z,22.5
2018-09-23T06:15:53.111Z,22.5
2018-09-23T06:16:42.990Z,22.5
2018-09-23T06:17:33.835Z,22.5
2018-09-23T06:18:24.469Z,22.5
2018-09-23T06:19:13.172Z,22.6
2018-09-23T06:20:03.443Z,22.5
2018-09-23T06:20:53.521Z,22.6
2018-09-23T06:21:44.191Z,22.5
2018-09-23T06:22:33.924Z,22.6
2018-09-23T06:23:24.017Z,22.6
2018-09-23T06:24:14.064Z,22.5
2018-09-23T06:25:04.464Z,22.6
2018-09-23T06:25:54.544Z,22.5
2018-09-23T06:26:43.972Z,22.5
2018-09-23T06:27:33.481Z,22.5
2018-09-23T06:28:24.639Z,22.6
2018-09-23T06:29:14.422Z,22.6
2018-09-23T06:30:04.219Z,22.6
2018-09-23T06:30:54.897Z,22.6
2018-09-23T06:31:43.643Z,22.6
2018-09-23T06:32:35.219Z,22.6
2018-09-23T06:33:23.621Z,22.6
2018-09-23T06:34:16.044Z,22.6
2018-09-23T06:35:04.866Z,22.6
2018-09-23T06:35:55.205Z,22.6
2018-09-23T06:36:44.768Z,22.6
2018-09-23T06:37:35.321Z,22.7
2018-09-23T06:38:24.871Z,22.7
2018-09-23T06:39:15.536Z,22.7
2018-09-23T06:40:04.981Z,22.8
2018-09-23T06:40:55.641Z,22.7
2018-09-23T06:41:44.831Z,22.7
2018-09-23T06:42:35.546Z,22.7
2018-09-23T06:43:25.347Z,22.7
2018-09-23T06:44:15.719Z,22.7
2018-09-23T06:45:05.131Z,22.7
2018-09-23T06:45:56.942Z,22.7
2018-09-23T06:46:45.233Z,22.7
2018-09-23T06:47:35.736Z,22.7
2018-09-23T06:48:26.076Z,22.6
2018-09-23T06:49:16.248Z,22.6
2018-09-23T06:50:06.583Z,22.6
2018-09-23T06:50:54.924Z,22.6
2018-09-23T06:51:46.963Z,22.6
2018-09-23T06:52:36.500Z,22.7
2018-09-23T06:53:26.293Z,22.7
2018-09-23T06:54:16.353Z,22.7
2018-09-23T06:55:06.426Z,22.7
2018-09-23T06:55:56.472Z,22.7
2018-09-23T06:56:47.366Z,22.7
2018-09-23T06:57:36.340Z,22.7
2018-09-23T06:58:26.619Z,22.7
2018-09-23T06:59:15.905Z,22.8
2018-09-23T07:00:06.675Z,22.8
2018-09-23T07:00:56.342Z,22.8
2018-09-23T07:01:46.999Z,22.9
2018-09-23T07:02:37.177Z,22.9
2018-09-23T07:03:26.992Z,22.9
2018-09-23T07:04:16.379Z,22.9
2018-09-23T07:05:08.242Z,23
2018-09-23T07:05:56.629Z,23
2018-09-23T07:06:47.540Z,23.1
2018-09-23T07:07:37.094Z,23.1
2018-09-23T07:08:26.817Z,23.1
2018-09-23T07:09:17.427Z,23.1
2018-09-23T07:10:07.015Z,23.1
2018-09-23T07:10:57.384Z,23.2
2018-09-23T07:11:47.031Z,23.2
2018-09-23T07:12:37.694Z,23.3
2018-09-23T07:13:26.936Z,23.2
2018-09-23T07:14:17.575Z,23.3
2018-09-23T07:15:07.392Z,23.3
2018-09-23T07:15:57.463Z,23.3
2018-09-23T07:16:48.607Z,23.3
2018-09-23T07:17:38.125Z,23.3
2018-09-23T07:18:27.597Z,23.3
2018-09-23T07:19:18.820Z,23.3
2018-09-23T07:20:08.025Z,23.3
2018-09-23T07:20:58.366Z,23.3
2018-09-23T07:21:48.532Z,23.3
2018-09-23T07:22:37.828Z,23.3
2018-09-23T07:23:28.016Z,23.3
2018-09-23T07:24:20.356Z,23.3
2018-09-23T07:25:07.858Z,23.4
2018-09-23T07:25:58.204Z,23.4
2018-09-23T07:26:48.844Z,23.4
2018-09-23T07:27:38.588Z,23.4
2018-09-23T07:28:28.953Z,23.4
2018-09-23T07:29:19.745Z,23.4
2018-09-23T07:30:10.413Z,23.4
2018-09-23T07:30:59.121Z,23.4
2018-09-23T07:31:49.008Z,23.4
2018-09-23T07:32:39.004Z,23.4
2018-09-23T07:33:28.631Z,23.4
2018-09-23T07:34:19.353Z,23.4
2018-09-23T07:35:08.596Z,23.4
2018-09-23T07:35:58.609Z,23.4
2018-09-23T07:36:51.924Z,23.4
2018-09-23T07:37:38.256Z,23.4
2018-09-23T07:38:29.831Z,23.4
2018-09-23T07:39:20.221Z,23.4
2018-09-23T07:40:10.664Z,23.4
2018-09-23T07:40:59.321Z,23.4
2018-09-23T07:41:50.190Z,23.4
2018-09-23T07:42:39.123Z,23.5
2018-09-23T07:43:30.339Z,23.5
2018-09-23T07:44:19.835Z,23.5
2018-09-23T07:45:09.890Z,23.5
2018-09-23T07:46:00.243Z,23.5
2018-09-23T07:46:50.350Z,23.5
2018-09-23T07:47:40.606Z,23.5
2018-09-23T07:48:30.724Z,23.5
2018-09-23T07:49:20.611Z,23.5
2018-09-23T07:50:10.375Z,23.5
2018-09-23T07:50:59.783Z,23.5
2018-09-23T07:51:49.920Z,23.6
2018-09-23T07:52:40.525Z,23.6
2018-09-23T07:53:31.136Z,23.6
2018-09-23T07:54:20.352Z,23.6
2018-09-23T07:55:10.685Z,23.6
2018-09-23T07:56:00.690Z,23.6
2018-09-23T07:56:50.800Z,23.6
2018-09-23T07:57:41.163Z,23.6
2018-09-23T07:58:30.935Z,23.6
2018-09-23T07:59:21.292Z,23.6
2018-09-23T08:00:10.785Z,23.7
2018-09-23T08:01:01.377Z,23.7
2018-09-23T08:01:51.148Z,23.7
2018-09-23T08:02:41.834Z,23.7
2018-09-23T08:03:33.087Z,23.7
2018-09-23T08:04:21.069Z,23.7
2018-09-23T08:05:11.685Z,23.7
2018-09-23T08:06:02.355Z,23.7
2018-09-23T08:06:51.559Z,23.8
2018-09-23T08:07:41.937Z,23.8
2018-09-23T08:08:31.929Z,23.8
2018-09-23T08:09:22.044Z,23.8
2018-09-23T08:10:12.099Z,23.8
2018-09-23T08:11:02.404Z,23.8
2018-09-23T08:11:52.189Z,23.8
2018-09-23T08:12:46.203Z,23.8
2018-09-23T08:13:35.609Z,23.8
2018-09-23T08:14:30.080Z,23.8
2018-09-23T08:15:13.615Z,23.8
2018-09-23T08:16:02.586Z,23.8
2018-09-23T08:16:52.664Z,23.8
2018-09-23T08:17:42.621Z,23.8
2018-09-23T08:18:32.722Z,23.8
2018-09-23T08:19:23.378Z,23.8
2018-09-23T08:20:16.113Z,23.8
2018-09-23T08:21:04.954Z,23.8
2018-09-23T08:21:52.959Z,23.8
2018-09-23T08:22:42.996Z,23.9
2018-09-23T08:23:33.156Z,23.9
2018-09-23T08:24:23.233Z,23.9
2018-09-23T08:25:14.696Z,23.9
2018-09-23T08:26:03.429Z,23.9
2018-09-23T08:26:52.893Z,23.9
2018-09-23T08:27:43.272Z,23.9
2018-09-23T08:28:33.009Z,23.9
2018-09-23T08:29:22.056Z,23.9
2018-09-23T08:30:13.924Z,23.9
2018-09-23T08:31:03.383Z,23.9
2018-09-23T08:31:54.031Z,23.9
2018-09-23T08:32:43.510Z,23.9
2018-09-23T08:33:33.346Z,23.9
2018-09-23T08:34:23.425Z,23.9
2018-09-23T08:35:14.277Z,23.9
2018-09-23T08:36:04.396Z,23.9
2018-09-23T08:36:53.374Z,23.9
2018-09-23T08:37:44.216Z,23.9
2018-09-23T08:38:34.616Z,24
2018-09-23T08:39:24.036Z,24
2018-09-23T08:40:14.631Z,24
2018-09-23T08:41:05.025Z,24
2018-09-23T08:41:55.058Z,24
2018-09-23T08:42:44.715Z,24
2018-09-23T08:43:35.038Z,24
2018-09-23T08:44:24.773Z,24
2018-09-23T08:45:14.506Z,24
2018-09-23T08:46:04.321Z,24
2018-09-23T08:46:55.370Z,24
2018-09-23T08:47:45.226Z,24
2018-09-23T08:48:36.041Z,24.1
2018-09-23T08:49:25.465Z,24.1
2018-09-23T08:50:15.572Z,24.1
2018-09-23T08:51:05.506Z,24.1
2018-09-23T08:51:56.797Z,24.1
2018-09-23T08:52:45.935Z,24.1
2018-09-23T08:53:35.107Z,24.1
2018-09-23T08:54:25.667Z,24.1
2018-09-23T08:55:15.520Z,24.1
2018-09-23T08:56:05.561Z,24.1
2018-09-23T08:56:55.411Z,24.1
2018-09-23T08:57:45.766Z,24.1
2018-09-23T08:58:36.143Z,24.1
2018-09-23T08:59:25.796Z,24.1
2018-09-23T09:00:15.312Z,24.1
2018-09-23T09:01:05.955Z,24.1
2018-09-23T09:01:56.579Z,24.1
2018-09-23T09:02:46.449Z,24.1
2018-09-23T09:03:36.395Z,24.1
2018-09-23T09:04:25.959Z,24.2
2018-09-23T09:05:16.298Z,24.2
2018-09-23T09:06:06.340Z,24.2
2018-09-23T09:06:56.399Z,24.2
2018-09-23T09:07:45.908Z,24.2
2018-09-23T09:08:36.249Z,24.2
2018-09-23T09:09:26.701Z,24.2
2018-09-23T09:10:16.405Z,24.2
2018-09-23T09:11:06.269Z,24.2
2018-09-23T09:11:58.864Z,24.2
2018-09-23T09:12:46.055Z,24.2
2018-09-23T09:13:36.743Z,24.3
2018-09-23T09:14:26.531Z,24.2
2018-09-23T09:15:16.911Z,24.2
2018-09-23T09:16:07.430Z,24.2
2018-09-23T09:16:57.208Z,24.2
2018-09-23T09:17:47.548Z,24.3
2018-09-23T09:18:38.959Z,24.3
2018-09-23T09:19:26.803Z,24.3
2018-09-23T09:20:16.881Z,24.2
2018-09-23T09:21:07.703Z,24.2
2018-09-23T09:21:57.576Z,24.3
2018-09-23T09:22:47.654Z,24.3
2018-09-23T09:39:44.507Z,24.1
2018-09-23T09:40:34.458Z,24.2
2018-09-23T09:41:24.060Z,24.1
2018-09-23T09:42:13.894Z,24.2
2018-09-23T09:43:04.439Z,24.1
2018-09-23T09:43:54.760Z,24.2
2018-09-23T09:44:44.079Z,24.2
2018-09-23T09:45:33.264Z,24.2
2018-09-23T09:46:24.461Z,24.2
2018-09-23T09:47:14.241Z,24.2
2018-09-23T09:48:03.976Z,24.3
2018-09-23T09:48:54.679Z,24.3
2018-09-23T09:49:44.691Z,24.3
2018-09-23T09:50:33.904Z,24.3
2018-09-23T09:51:24.615Z,24.3
2018-09-23T09:52:14.647Z,24.3
2018-09-23T09:53:04.471Z,24.3
2018-09-23T09:53:54.764Z,24.3
2018-09-23T09:54:45.687Z,24.3
2018-09-23T09:55:36.264Z,24.4
2018-09-23T09:56:25.301Z,24.4
2018-09-23T09:57:15.314Z,24.4
2018-09-23T09:58:04.502Z,24.4
2018-09-23T09:58:54.833Z,24.4
2018-09-23T09:59:45.745Z,24.4
2018-09-23T10:00:35.248Z,24.4
2018-09-23T10:01:25.074Z,24.4
2018-09-23T10:02:15.374Z,24.4
2018-09-23T10:03:05.950Z,24.4
2018-09-23T10:03:57.508Z,24.4
2018-09-23T10:04:46.359Z,24.4
2018-09-23T10:05:35.933Z,24.4
2018-09-23T10:06:25.412Z,24.4
2018-09-23T10:07:15.235Z,24.4
2018-09-23T10:08:05.971Z,24.4
2018-09-23T10:08:55.994Z,24.4
2018-09-23T10:09:46.648Z,24.4
2018-09-23T10:10:36.547Z,24.4
2018-09-23T10:11:26.122Z,24.4
2018-09-23T10:12:16.436Z,24.4
2018-09-23T10:13:06.241Z,24.4
2018-09-23T10:13:56.385Z,24.5
2018-09-23T10:14:46.060Z,24.5
2018-09-23T10:15:35.835Z,24.5
2018-09-23T10:16:26.436Z,24.5
2018-09-23T10:17:16.830Z,24.5
2018-09-23T10:18:06.647Z,24.5
2018-09-23T10:18:56.912Z,24.5
2018-09-23T10:19:46.269Z,24.5
2018-09-23T10:20:37.097Z,24.5
2018-09-23T10:21:26.559Z,24.5
2018-09-23T10:22:17.499Z,24.6
2018-09-23T10:23:09.316Z,24.6
2018-09-23T10:23:58.948Z,24.6
2018-09-23T10:24:47.327Z,24.6
2018-09-23T10:25:37.214Z,24.6
2018-09-23T10:26:27.489Z,24.6
2018-09-23T10:27:16.707Z,24.6
2018-09-23T10:28:07.364Z,24.6
2018-09-23T10:28:56.894Z,24.6
2018-09-23T10:29:48.397Z,24.6
2018-09-23T10:30:37.247Z,24.6
2018-09-23T10:31:30.920Z,24.6
2018-09-23T10:32:17.994Z,24.6
2018-09-23T10:33:07.496Z,24.6
2018-09-23T10:33:57.837Z,24.6
2018-09-23T10:34:47.106Z,24.6
2018-09-23T10:35:36.818Z,24.6
2018-09-23T10:36:28.608Z,24.6
2018-09-23T10:37:18.909Z,24.6
2018-09-23T10:38:08.468Z,24.6
2018-09-23T10:38:57.074Z,24.6
2018-09-23T10:39:48.027Z,24.6
2018-09-23T10:40:38.862Z,24.6
2018-09-23T10:41:29.496Z,24.6
2018-09-23T10:42:18.191Z,24.6
2018-09-23T10:43:09.083Z,24.6
2018-09-23T10:43:58.643Z,24.6
2018-09-23T10:44:49.228Z,24.6
2018-09-23T10:45:38.691Z,24.6
2018-09-23T10:46:28.398Z,24.6
2018-09-23T10:47:19.592Z,24.6
2018-09-23T10:48:09.380Z,24.6
2018-09-23T10:48:59.168Z,24.6
2018-09-23T10:49:49.729Z,24.6
2018-09-23T10:50:39.520Z,24.7
2018-09-23T10:51:29.536Z,24.6
2018-09-23T10:52:18.965Z,24.7
2018-09-23T10:53:09.255Z,24.7
2018-09-23T10:53:59.343Z,24.7
2018-09-23T10:54:49.102Z,24.7
2018-09-23T10:55:39.772Z,24.7
2018-09-23T10:56:29.816Z,24.7
2018-09-23T10:57:20.156Z,24.7
2018-09-23T10:58:09.718Z,24.7
2018-09-23T10:59:00.044Z,24.7
2018-09-23T10:59:50.117Z,24.7
2018-09-23T11:00:39.842Z,24.7
2018-09-23T11:01:29.632Z,24.7
2018-09-23T11:02:19.459Z,24.7
2018-09-23T11:03:10.307Z,24.7
2018-09-23T11:04:00.274Z,24.7
2018-09-23T11:04:48.449Z,24.8
2018-09-23T11:05:38.923Z,24.7
2018-09-23T11:06:29.802Z,24.8
2018-09-23T11:07:20.092Z,24.8
2018-09-23T11:08:09.671Z,24.8
2018-09-23T11:08:59.751Z,24.7
2018-09-23T11:09:50.222Z,24.8
2018-09-23T11:10:40.135Z,24.7
2018-09-23T11:11:30.720Z,24.8
2018-09-23T11:12:21.387Z,24.8
2018-09-23T11:13:11.350Z,24.8
2018-09-23T11:14:00.345Z,24.8
2018-09-23T11:14:50.639Z,24.8
2018-09-23T11:15:40.950Z,24.8
2018-09-23T11:16:30.191Z,24.8
2018-09-23T11:17:21.711Z,24.8
2018-09-23T11:18:10.713Z,24.8
2018-09-23T11:19:01.279Z,24.8
2018-09-23T11:19:51.023Z,24.8
2018-09-23T11:20:41.080Z,24.8
2018-09-23T11:21:31.180Z,24.8
2018-09-23T11:22:21.765Z,24.8
2018-09-23T11:23:12.013Z,24.8
2018-09-23T11:24:00.823Z,24.8
2018-09-23T11:24:53.525Z,24.8
2018-09-23T11:25:40.893Z,24.8
2018-09-23T11:26:32.110Z,24.8
2018-09-23T11:27:21.338Z,24.8
2018-09-23T11:28:12.227Z,24.8
2018-09-23T11:29:02.685Z,24.8
2018-09-23T11:29:51.775Z,24.8
2018-09-23T11:30:43.444Z,24.8
2018-09-23T11:31:32.805Z,24.8
2018-09-23T11:32:22.020Z,24.8
2018-09-23T11:33:12.963Z,24.8
2018-09-23T11:34:03.017Z,24.8
2018-09-23T11:34:52.454Z,24.8
2018-09-23T11:35:41.978Z,24.8
2018-09-23T11:36:32.814Z,24.8
2018-09-23T11:37:22.702Z,24.8
2018-09-23T11:38:12.747Z,24.9
2018-09-23T11:39:02.321Z,24.8
2018-09-23T11:39:53.959Z,24.8
2018-09-23T11:40:43.724Z,24.9
2018-09-23T11:41:33.616Z,24.9
2018-09-23T11:42:23.042Z,24.9
2018-09-23T11:43:12.326Z,24.9
2018-09-23T11:44:03.186Z,24.9
2018-09-23T11:44:52.383Z,24.9
2018-09-23T11:45:43.322Z,24.9
2018-09-23T11:46:33.078Z,24.9
2018-09-23T11:47:23.160Z,24.9
2018-09-23T11:48:13.212Z,24.9
2018-09-23T11:49:03.586Z,24.9
2018-09-23T11:49:54.067Z,24.9
2018-09-23T11:50:44.548Z,24.9
2018-09-23T11:51:33.678Z,24.9
2018-09-23T11:52:24.161Z,24.9
2018-09-23T11:53:13.695Z,24.9
2018-09-23T11:54:04.488Z,24.9
2018-09-23T11:54:54.215Z,24.9
2018-09-23T11:55:44.359Z,24.9
2018-09-23T11:56:34.215Z,24.9
2018-09-23T11:57:24.463Z,24.9
2018-09-23T11:58:14.525Z,24.9